Terminal Aerodrome Forecast
Issued by NWS Austin/San Antonio, TX

Current Version | Previous Version | Text Only | Print | Product List | Glossary On
Versions: 1 2 3 4 5 6 7 8 9 10 11 12 13 14 15 16 17 18 19 20 21 22
395
FTUS44 KEWX 241725
TAFAUS
TAF
KAUS 241725Z 2418/2524 36014KT P6SM VCSH BKN035
     FM250500 06007KT P6SM BKN020
     FM251600 06005KT P6SM VCSH BKN035=

USA.gov is the U.S. government's official web portal to all federal, state and local government web resources and services.